createdAt,value
2017-08-14T00:00:04.910Z,11.8
2017-08-14T00:05:01.298Z,11.7
2017-08-14T00:10:01.982Z,11.7
2017-08-14T00:15:01.386Z,11.7
2017-08-14T00:20:01.187Z,11.6
2017-08-14T00:25:02.127Z,11.6
2017-08-14T00:30:01.965Z,11.6
2017-08-14T00:35:02.127Z,11.6
2017-08-14T00:40:01.824Z,11.5
2017-08-14T00:45:01.297Z,11.5
2017-08-14T00:50:02.055Z,11.5
2017-08-14T00:55:01.201Z,11.4
2017-08-14T01:00:01.926Z,11.4
2017-08-14T01:05:01.189Z,11.4
2017-08-14T01:10:01.906Z,11.3
2017-08-14T01:15:01.860Z,11.3
2017-08-14T01:20:01.627Z,11.2
2017-08-14T01:25:01.858Z,11.2
2017-08-14T01:30:01.672Z,11.2
2017-08-14T01:35:02.785Z,11.1
2017-08-14T01:40:01.401Z,11
2017-08-14T01:45:01.860Z,11
2017-08-14T01:50:01.619Z,11
2017-08-14T01:55:02.004Z,10.8
2017-08-14T02:00:02.075Z,10.8
2017-08-14T02:05:02.101Z,10.7
2017-08-14T02:10:02.071Z,10.6
2017-08-14T02:15:01.557Z,10.6
2017-08-14T02:20:01.711Z,10.5
2017-08-14T02:25:01.620Z,10.5
2017-08-14T02:30:01.230Z,10.4
2017-08-14T02:35:02.101Z,10.3
2017-08-14T02:40:01.811Z,10.3
2017-08-14T02:45:02.136Z,10.2
2017-08-14T02:50:02.026Z,10.2
2017-08-14T02:55:01.690Z,10.1
2017-08-14T03:00:01.775Z,10.1
2017-08-14T03:05:01.957Z,10
2017-08-14T03:10:01.716Z,10
2017-08-14T03:15:02.089Z,9.9
2017-08-14T03:20:01.643Z,10
2017-08-14T03:25:01.729Z,9.9
2017-08-14T03:30:01.740Z,9.9
2017-08-14T03:35:01.998Z,9.8
2017-08-14T03:40:01.236Z,9.8
2017-08-14T03:45:02.018Z,9.8
2017-08-14T03:50:02.052Z,9.7
2017-08-14T03:55:02.100Z,9.6
2017-08-14T04:00:01.989Z,9.6
2017-08-14T04:05:01.199Z,9.6
2017-08-14T04:10:02.113Z,9.6
2017-08-14T04:15:01.498Z,9.5
2017-08-14T04:20:01.271Z,9.5
2017-08-14T04:25:02.050Z,9.5
2017-08-14T04:30:05.871Z,9.6
2017-08-14T04:35:01.657Z,9.6
2017-08-14T04:40:01.441Z,9.6
2017-08-14T04:45:01.954Z,9.6
2017-08-14T04:50:01.902Z,9.6
2017-08-14T04:55:01.424Z,9.8
2017-08-14T05:00:03.286Z,9.8
2017-08-14T05:05:01.933Z,9.8
2017-08-14T05:10:01.747Z,9.8
2017-08-14T05:15:01.479Z,9.8
2017-08-14T05:20:01.513Z,9.8
2017-08-14T05:25:01.645Z,9.8
2017-08-14T05:30:01.643Z,9.8
2017-08-14T05:35:01.237Z,9.8
2017-08-14T05:40:02.053Z,9.8
2017-08-14T05:45:01.747Z,9.8
2017-08-14T05:50:01.820Z,10.9
2017-08-14T05:55:01.443Z,10.9
2017-08-14T06:00:01.512Z,10.9
2017-08-14T06:05:01.811Z,11.5
2017-08-14T06:10:02.083Z,11.6
2017-08-14T06:15:01.355Z,11.6
2017-08-14T06:20:02.115Z,12
2017-08-14T06:25:01.826Z,12.3
2017-08-14T06:30:01.872Z,12.3
2017-08-14T06:35:02.068Z,12.7
2017-08-14T06:40:02.141Z,12.7
2017-08-14T06:45:01.405Z,12.7
2017-08-14T06:50:01.377Z,13.6
2017-08-14T06:55:01.466Z,13.8
2017-08-14T07:00:01.602Z,14.3
2017-08-14T07:05:01.451Z,14.3
2017-08-14T07:10:01.492Z,14.8
2017-08-14T07:15:01.358Z,14.8
2017-08-14T07:20:02.072Z,14.8
2017-08-14T07:25:01.501Z,15.4
2017-08-14T07:30:01.518Z,15.4
2017-08-14T07:35:01.264Z,15.8
2017-08-14T07:40:02.018Z,16
2017-08-14T07:45:01.912Z,16.3
2017-08-14T07:50:01.777Z,16.3
2017-08-14T07:55:01.587Z,16.6
2017-08-14T08:00:01.643Z,16.6
2017-08-14T08:05:01.404Z,16.9
2017-08-14T08:10:01.365Z,17
2017-08-14T08:15:01.500Z,17
2017-08-14T08:20:01.370Z,17.4
2017-08-14T08:25:02.059Z,17.4
2017-08-14T08:30:02.023Z,17.4
2017-08-14T08:35:01.718Z,17.4
2017-08-14T08:40:01.513Z,17.4
2017-08-14T08:45:01.551Z,18.3
2017-08-14T08:50:01.510Z,18.5
2017-08-14T08:55:01.277Z,18.8
2017-08-14T09:00:01.899Z,18.8
2017-08-14T09:05:01.944Z,18.8
2017-08-14T09:10:01.737Z,18.8
2017-08-14T09:15:01.992Z,19.2
2017-08-14T09:20:01.526Z,19.3
2017-08-14T09:25:01.537Z,19.3
2017-08-14T09:30:01.810Z,19.3
2017-08-14T09:35:01.476Z,19.4
2017-08-14T09:40:01.500Z,19.4
2017-08-14T09:45:01.488Z,19.4
2017-08-14T09:50:01.503Z,19.7
2017-08-14T09:55:01.728Z,19.7
2017-08-14T10:00:02.108Z,19.7
2017-08-14T10:05:01.320Z,19.7
2017-08-14T10:10:02.150Z,19.7
2017-08-14T10:15:01.452Z,19.7
2017-08-14T10:20:02.186Z,19.9
2017-08-14T10:25:01.901Z,19.9
2017-08-14T10:30:01.462Z,19.9
2017-08-14T10:35:01.510Z,19.9
2017-08-14T10:40:02.097Z,20
2017-08-14T10:45:01.441Z,20
2017-08-14T10:50:01.238Z,20
2017-08-14T10:55:01.657Z,20
2017-08-14T11:00:02.017Z,20
2017-08-14T11:05:01.409Z,20
2017-08-14T11:10:01.284Z,20
2017-08-14T11:15:01.774Z,20
2017-08-14T11:20:01.512Z,20
2017-08-14T11:25:01.621Z,20
2017-08-14T11:30:02.135Z,20
2017-08-14T11:35:01.242Z,20
2017-08-14T11:40:02.041Z,20
2017-08-14T11:45:01.814Z,19.6
2017-08-14T11:50:01.753Z,19.6
2017-08-14T11:55:01.479Z,19.5
2017-08-14T12:00:01.894Z,19.5
2017-08-14T12:05:01.991Z,19.5
2017-08-14T12:10:01.794Z,19.5
2017-08-14T12:15:01.232Z,19.5
2017-08-14T12:20:02.052Z,19.5
2017-08-14T12:25:02.021Z,19.3
2017-08-14T12:30:01.363Z,19.3
2017-08-14T12:35:01.355Z,19.4
2017-08-14T12:40:02.125Z,19.4
2017-08-14T12:45:02.007Z,19.3
2017-08-14T12:50:01.965Z,19.3
2017-08-14T12:55:02.007Z,19.3
2017-08-14T13:00:01.383Z,19.3
2017-08-14T13:05:01.742Z,19.3
2017-08-14T13:10:02.473Z,19.4
2017-08-14T13:15:01.426Z,19.4
2017-08-14T13:20:01.710Z,19.4
2017-08-14T13:25:02.189Z,19.4
2017-08-14T13:30:01.151Z,19.3
2017-08-14T13:35:01.958Z,19.3
2017-08-14T13:40:01.585Z,19.3
2017-08-14T13:45:01.871Z,19.2
2017-08-14T13:50:01.213Z,19.2
2017-08-14T13:55:01.909Z,19.2
2017-08-14T14:00:01.581Z,19.2
2017-08-14T14:05:01.840Z,19.2
2017-08-14T14:10:01.778Z,19.2
2017-08-14T14:15:02.043Z,19.2
2017-08-14T14:20:01.814Z,19.2
2017-08-14T14:25:01.323Z,19.3
2017-08-14T14:30:01.394Z,19.3
2017-08-14T14:35:01.805Z,19.3
2017-08-14T14:40:01.684Z,19.3
2017-08-14T14:45:01.547Z,19.3
2017-08-14T14:50:01.496Z,19.3
2017-08-14T14:55:01.199Z,19.2
2017-08-14T15:00:01.189Z,19.2
2017-08-14T15:05:01.403Z,19.2
2017-08-14T15:10:01.216Z,19.2
2017-08-14T15:15:01.647Z,19.2
2017-08-14T15:20:01.368Z,19.2
2017-08-14T15:25:01.915Z,19
2017-08-14T15:30:01.917Z,19
2017-08-14T15:35:02.109Z,19
2017-08-14T15:40:01.236Z,19
2017-08-14T15:45:01.690Z,19
2017-08-14T15:50:01.678Z,18.9
2017-08-14T15:55:01.871Z,18.9
2017-08-14T16:00:01.979Z,18.8
2017-08-14T16:05:01.524Z,18.8
2017-08-14T16:10:01.287Z,18.8
2017-08-14T16:15:01.189Z,18.8
2017-08-14T16:20:01.931Z,18.7
2017-08-14T16:25:01.384Z,18.7
2017-08-14T16:30:01.473Z,18.7
2017-08-14T16:35:02.049Z,18.7
2017-08-14T16:40:01.779Z,18.6
2017-08-14T16:45:01.736Z,18.7
2017-08-14T16:50:01.713Z,18.6
2017-08-14T16:55:01.406Z,18.6
2017-08-14T17:00:01.586Z,18.6
2017-08-14T17:05:01.463Z,18.6
2017-08-14T17:10:01.261Z,18.6
2017-08-14T17:15:01.851Z,18.6
2017-08-14T17:20:01.825Z,18.6
2017-08-14T17:25:01.669Z,18.6
2017-08-14T17:30:01.974Z,18.4
2017-08-14T17:35:01.627Z,18.4
2017-08-14T17:40:01.428Z,18.4
2017-08-14T17:45:01.716Z,18.4
2017-08-14T17:50:01.852Z,18.4
2017-08-14T17:55:01.497Z,18.4
2017-08-14T18:00:01.858Z,18.4
2017-08-14T18:05:02.106Z,18.1
2017-08-14T18:10:02.001Z,18
2017-08-14T18:15:01.262Z,18
2017-08-14T18:20:01.552Z,18
2017-08-14T18:25:01.333Z,18
2017-08-14T18:30:01.897Z,18
2017-08-14T18:35:01.262Z,17.9
2017-08-14T18:40:01.628Z,17.8
2017-08-14T18:45:01.379Z,17.8
2017-08-14T18:50:02.063Z,17.8
2017-08-14T18:55:01.704Z,17.8
2017-08-14T19:00:03.443Z,17.8
2017-08-14T19:05:02.076Z,17.6
2017-08-14T19:10:02.314Z,17.5
2017-08-14T19:15:01.333Z,17.5
2017-08-14T19:20:01.793Z,17.5
2017-08-14T19:25:01.431Z,17.5
2017-08-14T19:30:01.767Z,17.4
2017-08-14T19:35:01.731Z,17.4
2017-08-14T19:40:01.997Z,17.4
2017-08-14T19:45:01.322Z,17.4
2017-08-14T19:50:02.505Z,17.3
2017-08-14T19:55:01.461Z,17.3
2017-08-14T20:00:01.818Z,17.3
2017-08-14T20:05:01.834Z,17.3
2017-08-14T20:10:01.664Z,17.3
2017-08-14T20:15:01.514Z,17.4
2017-08-14T20:20:02.149Z,17.4
2017-08-14T20:25:01.946Z,17.4
2017-08-14T20:30:01.236Z,17.4
2017-08-14T20:35:01.965Z,17.4
2017-08-14T20:40:01.352Z,17.4
2017-08-14T20:45:01.782Z,17.4
2017-08-14T20:50:01.620Z,17.4
2017-08-14T20:55:01.549Z,17.4
2017-08-14T21:00:01.923Z,17.4
2017-08-14T21:05:02.241Z,17.4
2017-08-14T21:10:02.415Z,17.4
2017-08-14T21:15:01.733Z,17.4
2017-08-14T21:20:02.153Z,17.3
2017-08-14T21:25:01.819Z,17.3
2017-08-14T21:30:01.959Z,17.3
2017-08-14T21:35:01.263Z,17.3
2017-08-14T21:40:01.960Z,17.2
2017-08-14T21:45:01.261Z,17.2
2017-08-14T21:50:02.430Z,17.2
2017-08-14T21:55:01.223Z,17.1
2017-08-14T22:00:01.361Z,17.1
2017-08-14T22:05:02.063Z,17.1
2017-08-14T22:10:01.918Z,17.1
2017-08-14T22:15:01.844Z,17.1
2017-08-14T22:20:01.499Z,17
2017-08-14T22:25:01.214Z,17
2017-08-14T22:30:02.086Z,17
2017-08-14T22:35:01.706Z,17
2017-08-14T22:40:01.597Z,16.9
2017-08-14T22:45:01.290Z,16.9
2017-08-14T22:50:02.094Z,16.8
2017-08-14T22:55:01.595Z,16.8
2017-08-14T23:00:01.381Z,16.8
2017-08-14T23:05:01.988Z,16.7
2017-08-14T23:10:01.768Z,16.7
2017-08-14T23:15:01.284Z,16.6
2017-08-14T23:20:02.112Z,16.6
2017-08-14T23:25:01.589Z,16.6
2017-08-14T23:30:01.313Z,16.5
2017-08-14T23:35:01.611Z,16.5
2017-08-14T23:40:01.313Z,16.5
2017-08-14T23:45:26.842Z,16.5
2017-08-14T23:50:01.499Z,16.4
2017-08-14T23:55:01.965Z,16.4
